createdAt,value
2018-11-27T00:00:03.239Z,16.07
2018-11-27T00:02:30.894Z,13.17
2018-11-27T00:04:58.897Z,12.23
2018-11-27T00:07:26.562Z,11.40
2018-11-27T00:09:54.310Z,12.97
2018-11-27T00:12:22.180Z,12.13
2018-11-27T00:14:49.874Z,12.17
2018-11-27T00:17:17.514Z,13.00
2018-11-27T00:19:45.796Z,12.60
2018-11-27T00:22:13.461Z,12.13
2018-11-27T00:24:41.079Z,16.17
2018-11-27T00:27:08.766Z,13.87
2018-11-27T00:29:36.414Z,15.37
2018-11-27T00:32:04.506Z,13.60
2018-11-27T00:34:32.454Z,14.47
2018-11-27T00:37:00.171Z,13.23
2018-11-27T00:39:28.489Z,11.47
2018-11-27T00:41:56.338Z,12.90
2018-11-27T00:44:23.998Z,14.57
2018-11-27T00:46:51.647Z,16.03
2018-11-27T00:49:19.725Z,12.67
2018-11-27T00:51:47.419Z,13.87
2018-11-27T00:54:15.056Z,13.77
2018-11-27T00:56:42.776Z,14.33
2018-11-27T00:59:11.609Z,12.10
2018-11-27T01:01:39.233Z,13.43
2018-11-27T01:04:07.019Z,11.43
2018-11-27T01:06:34.864Z,12.33
2018-11-27T01:09:02.709Z,13.03
2018-11-27T01:11:32.016Z,12.20
2018-11-27T01:13:59.927Z,12.10
2018-11-27T01:16:27.570Z,12.90
2018-11-27T01:18:55.214Z,12.87
2018-11-27T01:21:22.917Z,14.97
2018-11-27T01:23:50.530Z,16.03
2018-11-27T01:26:18.560Z,13.37
2018-11-27T01:28:46.225Z,12.77
2018-11-27T01:31:14.126Z,13.43
2018-11-27T01:33:41.841Z,13.77
2018-11-27T01:36:09.457Z,12.90
2018-11-27T01:38:37.345Z,14.57
2018-11-27T01:41:05.558Z,13.60
2018-11-27T01:43:34.445Z,12.00
2018-11-27T01:46:02.405Z,14.50
2018-11-27T01:48:30.251Z,13.33
2018-11-27T01:50:58.946Z,13.77
2018-11-27T01:53:26.668Z,13.40
2018-11-27T01:55:54.303Z,13.17
2018-11-27T01:58:22.308Z,12.17
2018-11-27T02:00:50.026Z,13.67
2018-11-27T02:03:17.671Z,15.80
2018-11-27T02:05:45.634Z,14.10
2018-11-27T02:08:13.257Z,15.47
2018-11-27T02:10:40.937Z,17.07
2018-11-27T02:13:08.803Z,15.73
2018-11-27T02:15:36.449Z,21.77
2018-11-27T02:18:04.450Z,19.07
2018-11-27T02:20:32.160Z,21.50
2018-11-27T02:22:59.789Z,17.70
2018-11-27T02:25:28.788Z,17.33
2018-11-27T02:27:56.528Z,16.93
2018-11-27T02:30:25.102Z,18.00
2018-11-27T02:32:52.755Z,16.97
2018-11-27T02:35:23.330Z,17.90
2018-11-27T02:37:55.331Z,20.03
2018-11-27T02:40:23.027Z,16.73
2018-11-27T02:42:51.389Z,18.93
2018-11-27T02:45:20.323Z,17.37
2018-11-27T02:47:48.933Z,16.50
2018-11-27T02:50:17.240Z,14.83
2018-11-27T02:52:45.266Z,16.20
2018-11-27T02:55:15.841Z,16.43
2018-11-27T02:57:43.533Z,16.90
2018-11-27T03:00:12.422Z,14.80
2018-11-27T03:02:40.105Z,15.33
2018-11-27T03:05:10.323Z,15.77
2018-11-27T03:07:37.966Z,16.73
2018-11-27T03:10:08.193Z,12.17
2018-11-27T03:12:36.081Z,11.80
2018-11-27T03:15:04.245Z,15.57
2018-11-27T03:17:31.928Z,14.40
2018-11-27T03:19:59.579Z,13.87
2018-11-27T03:22:27.242Z,14.37
2018-11-27T03:24:54.917Z,15.10
2018-11-27T03:27:22.910Z,16.73
2018-11-27T03:29:50.517Z,14.20
2018-11-27T03:32:18.167Z,14.23
2018-11-27T03:34:46.058Z,14.60
2018-11-27T03:37:13.685Z,16.83
2018-11-27T03:39:41.327Z,16.20
2018-11-27T03:42:09.231Z,14.17
2018-11-27T03:44:36.909Z,14.10
2018-11-27T03:47:04.840Z,13.33
2018-11-27T03:49:32.739Z,14.83
2018-11-27T03:52:05.147Z,12.60
2018-11-27T03:54:33.104Z,15.80
2018-11-27T03:57:00.803Z,15.53
2018-11-27T03:59:28.423Z,15.30
2018-11-27T04:01:56.603Z,15.43
2018-11-27T04:04:24.279Z,15.90
2018-11-27T04:06:51.944Z,15.37
2018-11-27T04:09:19.955Z,17.90
2018-11-27T04:11:47.592Z,16.57
2018-11-27T04:14:15.356Z,16.37
2018-11-27T04:16:43.232Z,14.93
2018-11-27T04:19:10.919Z,15.23
2018-11-27T04:21:38.873Z,15.17
2018-11-27T04:24:06.540Z,13.63
2018-11-27T04:26:34.192Z,14.80
2018-11-27T04:29:02.270Z,13.27
2018-11-27T04:31:30.552Z,13.67
2018-11-27T04:33:58.183Z,14.37
2018-11-27T04:36:25.906Z,12.93
2018-11-27T04:38:53.632Z,13.33
2018-11-27T04:41:21.271Z,14.23
2018-11-27T04:43:49.126Z,12.83
2018-11-27T04:46:16.838Z,12.77
2018-11-27T04:48:44.880Z,13.57
2018-11-27T04:51:12.568Z,11.93
2018-11-27T04:53:40.888Z,12.73
2018-11-27T04:56:08.869Z,12.80
2018-11-27T04:58:36.519Z,14.17
2018-11-27T05:01:04.981Z,13.23
2018-11-27T05:03:33.007Z,14.40
2018-11-27T05:06:00.642Z,17.77
2018-11-27T05:08:28.310Z,14.03
2018-11-27T05:10:56.329Z,12.90
2018-11-27T05:13:24.042Z,12.13
2018-11-27T05:15:51.787Z,12.70
2018-11-27T05:18:20.155Z,14.90
2018-11-27T05:20:47.851Z,12.53
2018-11-27T05:23:15.494Z,11.83
2018-11-27T05:25:43.223Z,14.97
2018-11-27T05:28:10.859Z,13.07
2018-11-27T05:30:38.522Z,11.83
2018-11-27T05:33:06.475Z,13.73
2018-11-27T05:35:34.338Z,15.10
2018-11-27T05:38:02.222Z,13.27
2018-11-27T05:40:30.158Z,12.73
2018-11-27T05:43:03.274Z,14.20
2018-11-27T05:45:31.675Z,15.30
2018-11-27T05:47:59.349Z,13.20
2018-11-27T05:50:26.991Z,15.43
2018-11-27T05:52:54.973Z,13.70
2018-11-27T05:55:23.021Z,14.73
2018-11-27T05:57:52.127Z,13.33
2018-11-27T06:00:28.047Z,12.80
2018-11-27T06:02:57.521Z,12.17
2018-11-27T06:05:24.981Z,16.53
2018-11-27T06:07:53.018Z,13.80
2018-11-27T06:10:23.166Z,15.73
2018-11-27T06:12:50.992Z,19.50
2018-11-27T06:15:19.802Z,14.97
2018-11-27T06:17:49.478Z,14.27
2018-11-27T06:20:18.286Z,13.50
2018-11-27T06:22:46.329Z,14.17
2018-11-27T06:25:15.152Z,13.20
2018-11-27T06:27:42.865Z,13.30
2018-11-27T06:30:16.610Z,13.17
2018-11-27T06:32:44.293Z,13.17
2018-11-27T06:35:13.344Z,13.87
2018-11-27T06:37:41.160Z,12.47
2018-11-27T06:40:11.389Z,13.83
2018-11-27T06:42:39.106Z,14.47
2018-11-27T06:45:10.366Z,14.87
2018-11-27T06:47:38.086Z,17.23
2018-11-27T06:50:08.195Z,13.60
2018-11-27T06:52:36.318Z,13.50
2018-11-27T06:55:04.551Z,14.00
2018-11-27T06:57:32.242Z,15.70
2018-11-27T07:00:00.086Z,13.53
2018-11-27T07:02:27.743Z,13.53
2018-11-27T07:04:55.419Z,16.93
2018-11-27T07:07:23.272Z,16.93
2018-11-27T07:09:50.931Z,14.57
2018-11-27T07:12:18.570Z,16.20
2018-11-27T07:14:46.463Z,13.87
2018-11-27T07:17:14.119Z,16.03
2018-11-27T07:19:41.759Z,14.23
2018-11-27T07:22:09.762Z,16.07
2018-11-27T07:24:37.455Z,15.90
2018-11-27T07:27:05.164Z,15.63
2018-11-27T07:29:33.058Z,17.80
2018-11-27T07:32:00.778Z,15.17
2018-11-27T07:34:28.439Z,15.53
2018-11-27T07:36:56.275Z,16.00
2018-11-27T07:39:23.920Z,15.10
2018-11-27T07:41:51.582Z,15.23
2018-11-27T07:44:19.477Z,19.30
2018-11-27T07:46:47.127Z,15.23
2018-11-27T07:49:14.824Z,15.77
2018-11-27T07:51:42.694Z,18.33
2018-11-27T07:54:10.311Z,13.70
2018-11-27T07:56:38.884Z,15.80
2018-11-27T07:59:06.932Z,14.67
2018-11-27T08:01:34.599Z,15.93
2018-11-27T08:04:02.259Z,17.73
2018-11-27T08:06:30.155Z,16.23
2018-11-27T08:08:57.833Z,17.10
2018-11-27T08:11:25.503Z,16.57
2018-11-27T08:13:53.440Z,14.63
2018-11-27T08:16:21.175Z,14.30
2018-11-27T08:18:48.875Z,14.03
2018-11-27T08:21:16.942Z,16.07
2018-11-27T08:23:44.600Z,15.13
2018-11-27T08:26:12.264Z,14.87
2018-11-27T08:28:40.087Z,15.90
2018-11-27T08:31:07.759Z,14.93
2018-11-27T08:33:35.389Z,15.93
2018-11-27T08:36:03.376Z,15.07
2018-11-27T08:38:31.067Z,15.57
2018-11-27T08:40:58.676Z,14.27
2018-11-27T08:43:26.679Z,15.57
2018-11-27T08:45:54.339Z,15.67
2018-11-27T08:48:22.064Z,14.43
2018-11-27T08:50:49.986Z,17.13
2018-11-27T08:53:17.650Z,14.03
2018-11-27T08:55:45.294Z,14.63
2018-11-27T08:58:18.606Z,16.40
2018-11-27T09:00:46.266Z,18.17
2018-11-27T09:03:13.951Z,14.40
2018-11-27T09:05:41.648Z,17.77
2018-11-27T09:08:09.298Z,17.40
2018-11-27T09:10:36.966Z,16.30
2018-11-27T09:13:05.747Z,18.30
2018-11-27T09:15:33.533Z,15.13
2018-11-27T09:18:15.868Z,19.43
2018-11-27T09:20:43.501Z,16.67
2018-11-27T09:23:11.182Z,17.77
2018-11-27T09:25:39.331Z,18.63
2018-11-27T09:28:07.024Z,16.67
2018-11-27T09:30:34.665Z,17.03
2018-11-27T09:33:02.627Z,16.97
2018-11-27T09:35:30.302Z,18.53
2018-11-27T09:37:57.955Z,16.53
2018-11-27T09:40:25.675Z,17.80
2018-11-27T09:42:53.335Z,18.43
2018-11-27T09:45:23.172Z,19.43
2018-11-27T09:47:52.320Z,17.30
2018-11-27T09:50:20.014Z,18.53
2018-11-27T09:52:47.698Z,17.27
2018-11-27T09:55:21.258Z,16.50
2018-11-27T09:57:49.591Z,18.50
2018-11-27T10:00:23.610Z,16.67
2018-11-27T10:02:54.564Z,16.87
2018-11-27T10:05:22.227Z,16.10
2018-11-27T10:07:49.916Z,15.73
2018-11-27T10:10:19.126Z,16.03
2018-11-27T10:12:46.776Z,16.50
2018-11-27T10:15:15.666Z,16.40
2018-11-27T10:17:44.270Z,15.03
2018-11-27T10:20:17.019Z,17.43
2018-11-27T10:22:44.724Z,15.93
2018-11-27T10:25:12.402Z,16.57
2018-11-27T10:27:40.891Z,15.03
2018-11-27T10:30:14.550Z,16.47
2018-11-27T10:35:12.204Z,15.60
2018-11-27T10:37:47.135Z,17.37
2018-11-27T10:40:14.855Z,13.83
2018-11-27T10:42:42.565Z,15.63
2018-11-27T10:47:39.727Z,14.10
2018-11-27T10:50:09.142Z,15.53
2018-11-27T10:52:37.619Z,14.23
2018-11-27T10:55:07.344Z,14.83
2018-11-27T11:00:02.799Z,14.97
2018-11-27T11:02:33.562Z,14.67
2018-11-27T11:07:29.256Z,15.57
2018-11-27T11:09:56.938Z,15.33
2018-11-27T11:14:51.816Z,11.90
2018-11-27T11:17:19.475Z,14.00
2018-11-27T11:22:15.814Z,16.27
2018-11-27T11:27:11.047Z,15.13
2018-11-27T11:32:06.181Z,15.00
2018-11-27T11:34:33.846Z,17.80
2018-11-27T11:37:01.783Z,13.43
2018-11-27T11:39:29.619Z,15.87
2018-11-27T11:41:57.273Z,12.77
2018-11-27T11:46:53.087Z,14.40
2018-11-27T11:49:20.742Z,13.53
2018-11-27T11:51:49.260Z,13.90
2018-11-27T11:54:16.935Z,13.53
2018-11-27T11:56:44.564Z,15.00
2018-11-27T12:01:39.670Z,15.20
2018-11-27T12:04:07.762Z,14.00
2018-11-27T12:06:35.470Z,14.57
2018-11-27T12:09:03.564Z,16.37
2018-11-27T12:11:31.670Z,14.67
2018-11-27T12:13:59.301Z,15.03
2018-11-27T12:16:26.979Z,14.17
2018-11-27T12:21:22.259Z,14.33
2018-11-27T12:23:49.938Z,15.13
2018-11-27T12:26:17.880Z,13.90
2018-11-27T12:28:45.543Z,13.07
2018-11-27T12:31:13.180Z,13.80
2018-11-27T12:36:09.313Z,14.53
2018-11-27T12:38:37.250Z,12.67
2018-11-27T12:41:10.092Z,12.33
2018-11-27T12:43:33.019Z,12.80
2018-11-27T12:48:28.138Z,13.57
2018-11-27T12:55:54.191Z,9.90
2018-11-27T12:58:21.836Z,11.93
2018-11-27T13:00:49.510Z,12.97
2018-11-27T13:05:45.204Z,11.47
2018-11-27T13:10:48.905Z,14.83
2018-11-27T13:13:16.555Z,13.80
2018-11-27T13:15:44.952Z,11.93
2018-11-27T13:18:12.655Z,11.20
2018-11-27T13:20:40.463Z,14.67
2018-11-27T13:23:08.486Z,12.63
2018-11-27T13:25:36.903Z,12.20
2018-11-27T13:28:05.723Z,13.30
2018-11-27T13:30:43.272Z,13.43
2018-11-27T13:33:15.259Z,12.70
2018-11-27T13:38:10.363Z,13.07
2018-11-27T13:40:38.051Z,11.37
2018-11-27T13:45:34.339Z,12.37
2018-11-27T13:48:02.233Z,12.63
2018-11-27T13:50:29.916Z,12.90
2018-11-27T13:52:57.863Z,11.40
2018-11-27T13:55:25.756Z,11.97
2018-11-27T13:57:53.398Z,11.33
2018-11-27T14:00:21.088Z,11.40
2018-11-27T14:05:19.395Z,14.10
2018-11-27T14:07:47.446Z,12.63
2018-11-27T14:10:15.326Z,12.33
2018-11-27T14:12:43.023Z,13.13
2018-11-27T14:20:10.361Z,12.93
2018-11-27T14:22:38.099Z,12.67
2018-11-27T14:25:07.817Z,13.60
2018-11-27T14:27:35.517Z,12.83
2018-11-27T14:30:06.883Z,13.53
2018-11-27T14:35:01.942Z,12.93
2018-11-27T14:37:30.066Z,13.30
2018-11-27T14:39:57.762Z,14.50
2018-11-27T14:42:25.394Z,12.93
2018-11-27T14:47:20.475Z,13.50
2018-11-27T14:49:48.398Z,13.03
2018-11-27T14:52:16.038Z,14.17
2018-11-27T14:54:43.531Z,18.27
2018-11-27T14:57:11.433Z,14.37
2018-11-27T14:59:39.095Z,13.00
2018-11-27T15:02:06.814Z,11.00
2018-11-27T15:09:29.574Z,12.43
2018-11-27T15:11:57.223Z,13.83
2018-11-27T15:16:52.251Z,15.90
2018-11-27T15:19:19.928Z,13.53
2018-11-27T15:21:47.919Z,12.17
2018-11-27T15:24:15.611Z,14.53
2018-11-27T15:26:43.288Z,15.47
2018-11-27T15:29:11.336Z,13.07
2018-11-27T15:31:38.974Z,13.00
2018-11-27T15:34:06.643Z,15.73
2018-11-27T15:39:05.810Z,15.13
2018-11-27T15:41:33.468Z,13.33
2018-11-27T15:44:01.335Z,13.57
2018-11-27T15:46:28.976Z,15.67
2018-11-27T15:48:57.448Z,14.10
2018-11-27T15:53:52.957Z,12.93
2018-11-27T15:56:20.641Z,13.80
2018-11-27T16:01:15.714Z,14.80
2018-11-27T16:03:43.371Z,16.50
2018-11-27T16:08:38.209Z,13.67
2018-11-27T16:11:05.860Z,16.63
2018-11-27T16:13:33.857Z,14.77
2018-11-27T16:16:01.516Z,14.30
2018-11-27T16:18:29.167Z,14.73
2018-11-27T16:20:57.175Z,13.67
2018-11-27T16:23:24.818Z,16.73
2018-11-27T16:25:52.498Z,13.73
2018-11-27T16:30:47.376Z,17.30
2018-11-27T16:33:15.203Z,14.83
2018-11-27T16:35:42.864Z,16.43
2018-11-27T16:38:10.511Z,16.63
2018-11-27T16:43:06.126Z,15.90
2018-11-27T16:45:33.799Z,14.87
2018-11-27T16:50:31.572Z,15.53
2018-11-27T16:52:59.221Z,14.60
2018-11-27T16:55:27.169Z,15.17
2018-11-27T16:57:54.816Z,16.13
2018-11-27T17:00:24.428Z,15.27
2018-11-27T17:02:54.672Z,15.17
2018-11-27T17:05:22.398Z,14.17
2018-11-27T17:07:50.065Z,16.13
2018-11-27T17:15:16.209Z,16.67
2018-11-27T17:17:43.905Z,17.47
2018-11-27T17:22:42.254Z,13.73
2018-11-27T17:25:09.911Z,18.27
2018-11-27T17:27:37.762Z,16.73
2018-11-27T17:30:17.668Z,14.70
2018-11-27T17:32:45.708Z,15.43
2018-11-27T17:35:13.374Z,15.63
2018-11-27T17:37:41.023Z,16.90
2018-11-27T17:42:37.667Z,16.07
2018-11-27T17:45:12.074Z,16.50
2018-11-27T17:47:39.788Z,15.20
2018-11-27T17:50:14.773Z,17.10
2018-11-27T17:52:42.474Z,14.63
2018-11-27T17:55:10.271Z,16.90
2018-11-27T18:00:22.870Z,14.90
2018-11-27T18:05:19.437Z,16.30
2018-11-27T18:07:47.107Z,16.80
2018-11-27T18:12:42.178Z,15.97
2018-11-27T18:15:14.023Z,17.10
2018-11-27T18:17:41.987Z,15.33
2018-11-27T18:20:35.654Z,16.67
2018-11-27T18:25:57.061Z,17.70
2018-11-27T18:30:54.714Z,16.53
2018-11-27T18:33:22.536Z,17.40
2018-11-27T18:38:17.343Z,17.53
2018-11-27T18:40:45.176Z,17.77
2018-11-27T18:43:13.318Z,16.37
2018-11-27T18:45:40.996Z,14.33
2018-11-27T18:48:08.703Z,14.67
2018-11-27T18:53:04.075Z,18.33
2018-11-27T18:55:31.771Z,17.97
2018-11-27T18:57:59.398Z,15.67
2018-11-27T19:00:28.106Z,17.83
2018-11-27T19:02:56.197Z,16.90
2018-11-27T19:05:23.909Z,18.97
2018-11-27T19:07:51.584Z,20.83
2018-11-27T19:10:21.550Z,19.27
2018-11-27T19:12:49.264Z,18.77
2018-11-27T19:15:25.059Z,17.67
2018-11-27T19:17:55.062Z,19.57
2018-11-27T19:20:22.646Z,17.40
2018-11-27T19:25:17.442Z,17.20
2018-11-27T19:30:16.218Z,18.90
2018-11-27T19:32:42.277Z,19.30
2018-11-27T19:35:11.216Z,19.30
2018-11-27T19:37:38.956Z,18.40
2018-11-27T19:40:09.299Z,16.77
2018-11-27T19:45:22.386Z,16.10
2018-11-27T19:47:50.353Z,15.73
2018-11-27T19:50:17.983Z,20.77
2018-11-27T19:52:46.783Z,15.90
2018-11-27T19:55:15.585Z,17.80
2018-11-27T19:57:43.130Z,18.77
2018-11-27T20:00:18.234Z,16.17
2018-11-27T20:02:45.823Z,17.40
2018-11-27T20:05:15.236Z,19.23
2018-11-27T20:12:39.723Z,18.50
2018-11-27T20:17:41.400Z,19.90
2018-11-27T20:20:10.989Z,19.53
2018-11-27T20:22:39.052Z,15.27
2018-11-27T20:25:11.638Z,19.67
2018-11-27T20:27:39.678Z,19.90
2018-11-27T20:30:20.145Z,16.07
2018-11-27T20:35:16.971Z,16.57
2018-11-27T20:37:46.751Z,17.87
2018-11-27T20:40:16.121Z,18.97
2018-11-27T20:42:43.727Z,22.33
2018-11-27T20:47:45.825Z,16.73
2018-11-27T20:52:43.844Z,19.70
2018-11-27T20:55:11.388Z,19.53
2018-11-27T21:00:17.753Z,16.97
2018-11-27T21:05:13.944Z,18.77
2018-11-27T21:07:41.529Z,18.80
2018-11-27T21:12:38.528Z,17.40
2018-11-27T21:15:09.252Z,17.70
2018-11-27T21:20:05.833Z,17.27
2018-11-27T21:22:33.359Z,20.03
2018-11-27T21:25:01.327Z,17.50
2018-11-27T21:27:29.004Z,17.70
2018-11-27T21:29:56.641Z,15.13
2018-11-27T21:34:51.620Z,16.60
2018-11-27T21:37:19.219Z,16.23
2018-11-27T21:42:14.962Z,15.87
2018-11-27T21:44:42.972Z,15.73
2018-11-27T21:47:10.808Z,15.63
2018-11-27T21:49:38.366Z,15.87
2018-11-27T21:52:06.463Z,15.43
2018-11-27T21:54:34.187Z,16.47
2018-11-27T21:57:01.854Z,16.67
2018-11-27T21:59:29.966Z,15.23
2018-11-27T22:01:57.538Z,16.60
2018-11-27T22:04:25.123Z,14.00
2018-11-27T22:06:53.048Z,14.83
2018-11-27T22:09:20.492Z,14.40
2018-11-27T22:11:48.955Z,16.13
2018-11-27T22:16:43.839Z,15.60
2018-11-27T22:19:11.414Z,13.37
2018-11-27T22:24:06.699Z,14.70
2018-11-27T22:26:34.292Z,16.17
2018-11-27T22:29:02.186Z,15.20
2018-11-27T22:31:29.760Z,15.33
2018-11-27T22:33:57.459Z,14.03
2018-11-27T22:41:19.521Z,12.77
2018-11-27T22:43:47.094Z,14.63
2018-11-27T22:46:15.759Z,15.40
2018-11-27T22:48:43.394Z,15.63
2018-11-27T22:51:11.541Z,14.93
2018-11-27T22:56:06.341Z,12.73
2018-11-27T22:58:33.859Z,17.07
2018-11-27T23:03:28.876Z,16.23
2018-11-27T23:05:56.481Z,14.43
2018-11-27T23:08:24.416Z,14.83
2018-11-27T23:10:51.820Z,14.20
2018-11-27T23:13:19.366Z,14.93
2018-11-27T23:18:14.029Z,13.30
2018-11-27T23:20:41.659Z,16.90
2018-11-27T23:23:09.293Z,14.10
2018-11-27T23:25:36.841Z,14.73
2018-11-27T23:28:04.610Z,14.60
2018-11-27T23:32:59.521Z,13.53
2018-11-27T23:35:27.112Z,16.60
2018-11-27T23:37:55.124Z,13.40
2018-11-27T23:40:22.678Z,12.50
2018-11-27T23:42:50.293Z,15.93
2018-11-27T23:45:19.872Z,15.43
2018-11-27T23:47:47.443Z,15.23
2018-11-27T23:50:16.467Z,15.00
2018-11-27T23:52:44.347Z,17.10
2018-11-27T23:55:13.258Z,15.10
2018-11-27T23:57:41.218Z,13.80
